sensor_id;sensor_type;location;lat;lon;timestamp;temperature;humidity
21590;DHT22;10957;50.968;6.828;2023-02-01T00:03:07;7.20;99.90
21590;DHT22;10957;50.968;6.828;2023-02-01T00:08:09;6.60;99.90
21590;DHT22;10957;50.968;6.828;2023-02-01T00:13:11;6.90;99.90
21590;DHT22;10957;50.968;6.828;2023-02-01T00:18:13;7.10;99.90
21590;DHT22;10957;50.968;6.828;2023-02-01T00:23:14;6.70;99.90
21590;DHT22;10957;50.968;6.828;2023-02-01T00:28:15;6.70;99.90
21590;DHT22;10957;50.968;6.828;2023-02-01T00:33:17;6.60;99.90
21590;DHT22;10957;50.968;6.828;2023-02-01T00:38:18;6.50;99.90
21590;DHT22;10957;50.968;6.828;2023-02-01T00:43:21;5.90;99.90
21590;DHT22;10957;50.968;6.828;2023-02-01T00:48:22;6.60;99.90
21590;DHT22;10957;50.968;6.828;2023-02-01T00:53:24;6.40;99.90
21590;DHT22;10957;50.968;6.828;2023-02-01T00:58:26;6.40;99.90
21590;DHT22;10957;50.968;6.828;2023-02-01T01:03:27;6.30;99.90
21590;DHT22;10957;50.968;6.828;2023-02-01T01:08:31;6.20;99.90
21590;DHT22;10957;50.968;6.828;2023-02-01T01:13:32;6.20;99.90
21590;DHT22;10957;50.968;6.828;2023-02-01T01:18:34;6.30;99.90
21590;DHT22;10957;50.968;6.828;2023-02-01T01:23:36;6.20;99.90
21590;DHT22;10957;50.968;6.828;2023-02-01T01:28:38;6.30;99.90
21590;DHT22;10957;50.968;6.828;2023-02-01T01:33:39;5.80;99.90
21590;DHT22;10957;50.968;6.828;2023-02-01T01:38:42;6.00;99.90
21590;DHT22;10957;50.968;6.828;2023-02-01T01:54:11;5.70;99.90
21590;DHT22;10957;50.968;6.828;2023-02-01T01:59:13;5.90;99.90
21590;DHT22;10957;50.968;6.828;2023-02-01T02:04:15;5.60;99.90
21590;DHT22;10957;50.968;6.828;2023-02-01T02:09:16;5.70;99.90
21590;DHT22;10957;50.968;6.828;2023-02-01T02:14:19;5.60;99.90
21590;DHT22;10957;50.968;6.828;2023-02-01T02:19:56;5.90;99.90
21590;DHT22;10957;50.968;6.828;2023-02-01T02:30:56;6.20;99.90
21590;DHT22;10957;50.968;6.828;2023-02-01T02:36:43;6.00;99.90
21590;DHT22;10957;50.968;6.828;2023-02-01T02:47:44;6.20;99.90
21590;DHT22;10957;50.968;6.828;2023-02-01T02:53:15;6.20;99.90
21590;DHT22;10957;50.968;6.828;2023-02-01T02:58:36;6.30;99.90
21590;DHT22;10957;50.968;6.828;2023-02-01T03:03:56;6.20;99.90
21590;DHT22;10957;50.968;6.828;2023-02-01T03:09:16;6.30;99.90
21590;DHT22;10957;50.968;6.828;2023-02-01T03:14:21;6.20;99.90
21590;DHT22;10957;50.968;6.828;2023-02-01T03:19:30;6.30;99.90
21590;DHT22;10957;50.968;6.828;2023-02-01T03:24:39;6.40;99.90
21590;DHT22;10957;50.968;6.828;2023-02-01T03:29:56;6.40;99.90
21590;DHT22;10957;50.968;6.828;2023-02-01T03:35:00;6.50;99.90
21590;DHT22;10957;50.968;6.828;2023-02-01T03:40:08;6.20;99.90
21590;DHT22;10957;50.968;6.828;2023-02-01T03:45:24;6.30;99.90
21590;DHT22;10957;50.968;6.828;2023-02-01T03:50:29;6.50;99.90
21590;DHT22;10957;50.968;6.828;2023-02-01T03:55:32;6.20;99.90
21590;DHT22;10957;50.968;6.828;2023-02-01T04:00:34;6.30;99.90
21590;DHT22;10957;50.968;6.828;2023-02-01T04:05:35;6.40;99.90
21590;DHT22;10957;50.968;6.828;2023-02-01T04:10:39;6.10;99.90
21590;DHT22;10957;50.968;6.828;2023-02-01T04:15:40;6.00;99.90
21590;DHT22;10957;50.968;6.828;2023-02-01T04:20:42;5.70;99.90
21590;DHT22;10957;50.968;6.828;2023-02-01T04:25:44;6.10;99.90
21590;DHT22;10957;50.968;6.828;2023-02-01T04:30:46;6.20;99.90
21590;DHT22;10957;50.968;6.828;2023-02-01T04:35:47;6.30;99.90
21590;DHT22;10957;50.968;6.828;2023-02-01T04:40:48;5.70;99.90
21590;DHT22;10957;50.968;6.828;2023-02-01T04:45:50;6.10;99.90
21590;DHT22;10957;50.968;6.828;2023-02-01T04:50:51;6.10;99.90
21590;DHT22;10957;50.968;6.828;2023-02-01T04:55:52;5.90;99.90
21590;DHT22;10957;50.968;6.828;2023-02-01T05:00:53;5.70;99.90
21590;DHT22;10957;50.968;6.828;2023-02-01T05:05:55;5.40;99.90
21590;DHT22;10957;50.968;6.828;2023-02-01T05:10:56;5.90;99.90
21590;DHT22;10957;50.968;6.828;2023-02-01T05:15:57;5.90;99.90
21590;DHT22;10957;50.968;6.828;2023-02-01T05:20:58;6.00;99.90
21590;DHT22;10957;50.968;6.828;2023-02-01T05:26:00;5.80;96.80
21590;DHT22;10957;50.968;6.828;2023-02-01T05:31:09;5.80;96.80
21590;DHT22;10957;50.968;6.828;2023-02-01T05:36:11;5.30;99.90
21590;DHT22;10957;50.968;6.828;2023-02-01T05:41:12;5.60;99.90
21590;DHT22;10957;50.968;6.828;2023-02-01T05:46:13;5.60;99.90
21590;DHT22;10957;50.968;6.828;2023-02-01T05:51:14;5.00;99.90
21590;DHT22;10957;50.968;6.828;2023-02-01T05:56:16;5.50;99.90
21590;DHT22;10957;50.968;6.828;2023-02-01T06:01:17;5.60;99.90
21590;DHT22;10957;50.968;6.828;2023-02-01T06:06:18;5.30;99.90
21590;DHT22;10957;50.968;6.828;2023-02-01T06:11:20;5.70;99.90
21590;DHT22;10957;50.968;6.828;2023-02-01T06:16:22;5.50;99.90
21590;DHT22;10957;50.968;6.828;2023-02-01T06:21:23;5.40;99.90
21590;DHT22;10957;50.968;6.828;2023-02-01T06:26:25;5.40;99.90
21590;DHT22;10957;50.968;6.828;2023-02-01T06:31:26;5.40;99.90
21590;DHT22;10957;50.968;6.828;2023-02-01T06:41:51;5.40;99.90
21590;DHT22;10957;50.968;6.828;2023-02-01T06:46:52;4.90;99.90
21590;DHT22;10957;50.968;6.828;2023-02-01T06:51:53;5.30;99.90
21590;DHT22;10957;50.968;6.828;2023-02-01T06:56:54;5.50;99.90
21590;DHT22;10957;50.968;6.828;2023-02-01T07:01:55;5.50;99.90
21590;DHT22;10957;50.968;6.828;2023-02-01T07:06:57;5.50;99.90
21590;DHT22;10957;50.968;6.828;2023-02-01T07:11:58;5.00;99.90
21590;DHT22;10957;50.968;6.828;2023-02-01T07:16:59;5.10;99.90
21590;DHT22;10957;50.968;6.828;2023-02-01T07:22:00;5.70;99.90
21590;DHT22;10957;50.968;6.828;2023-02-01T07:27:01;5.70;99.90
21590;DHT22;10957;50.968;6.828;2023-02-01T07:32:02;5.60;99.90
21590;DHT22;10957;50.968;6.828;2023-02-01T07:37:04;5.70;99.90
21590;DHT22;10957;50.968;6.828;2023-02-01T07:42:05;5.30;99.90
21590;DHT22;10957;50.968;6.828;2023-02-01T07:47:07;5.80;99.90
21590;DHT22;10957;50.968;6.828;2023-02-01T07:52:08;5.20;99.90
21590;DHT22;10957;50.968;6.828;2023-02-01T07:57:12;5.60;99.90
21590;DHT22;10957;50.968;6.828;2023-02-01T08:02:14;5.90;99.90
21590;DHT22;10957;50.968;6.828;2023-02-01T08:07:15;5.70;99.90
21590;DHT22;10957;50.968;6.828;2023-02-01T08:12:16;5.80;99.90
21590;DHT22;10957;50.968;6.828;2023-02-01T08:17:17;5.70;99.90
21590;DHT22;10957;50.968;6.828;2023-02-01T08:22:18;5.20;99.90
21590;DHT22;10957;50.968;6.828;2023-02-01T08:27:20;5.30;99.90
21590;DHT22;10957;50.968;6.828;2023-02-01T08:32:21;5.80;99.90
21590;DHT22;10957;50.968;6.828;2023-02-01T08:37:22;5.50;99.90
21590;DHT22;10957;50.968;6.828;2023-02-01T08:42:23;6.00;99.90
21590;DHT22;10957;50.968;6.828;2023-02-01T08:47:43;5.60;99.90
21590;DHT22;10957;50.968;6.828;2023-02-01T08:52:45;6.00;99.90
21590;DHT22;10957;50.968;6.828;2023-02-01T08:57:47;5.90;99.90
21590;DHT22;10957;50.968;6.828;2023-02-01T09:02:48;6.10;99.90
21590;DHT22;10957;50.968;6.828;2023-02-01T09:07:49;5.80;96.50
21590;DHT22;10957;50.968;6.828;2023-02-01T09:12:50;6.30;91.40
21590;DHT22;10957;50.968;6.828;2023-02-01T09:17:52;6.60;80.00
21590;DHT22;10957;50.968;6.828;2023-02-01T09:22:55;6.80;66.90
21590;DHT22;10957;50.968;6.828;2023-02-01T09:27:56;6.70;58.10
21590;DHT22;10957;50.968;6.828;2023-02-01T09:32:57;6.60;55.70
21590;DHT22;10957;50.968;6.828;2023-02-01T09:37:58;6.50;59.50
21590;DHT22;10957;50.968;6.828;2023-02-01T09:43:16;6.70;49.10
21590;DHT22;10957;50.968;6.828;2023-02-01T09:48:24;6.90;48.60
21590;DHT22;10957;50.968;6.828;2023-02-01T09:53:40;7.30;44.50
21590;DHT22;10957;50.968;6.828;2023-02-01T10:04:13;6.90;41.60
21590;DHT22;10957;50.968;6.828;2023-02-01T10:20:04;6.90;23.80
21590;DHT22;10957;50.968;6.828;2023-02-01T10:25:44;7.30;41.60
21590;DHT22;10957;50.968;6.828;2023-02-01T10:30:48;7.30;21.30
21590;DHT22;10957;50.968;6.828;2023-02-01T10:35:55;7.50;3.10
21590;DHT22;10957;50.968;6.828;2023-02-01T10:41:22;7.10;7.00
21590;DHT22;10957;50.968;6.828;2023-02-01T10:46:24;7.60;9.50
21590;DHT22;10957;50.968;6.828;2023-02-01T10:51:42;7.60;8.00
21590;DHT22;10957;50.968;6.828;2023-02-01T10:56:45;8.00;10.00
21590;DHT22;10957;50.968;6.828;2023-02-01T11:01:50;7.70;1.00
21590;DHT22;10957;50.968;6.828;2023-02-01T11:07:19;7.50;1.00
21590;DHT22;10957;50.968;6.828;2023-02-01T11:17:35;8.10;1.00
21590;DHT22;10957;50.968;6.828;2023-02-01T11:22:47;7.80;1.00
21590;DHT22;10957;50.968;6.828;2023-02-01T11:27:50;7.70;1.00
21590;DHT22;10957;50.968;6.828;2023-02-01T11:32:51;7.70;1.00
21590;DHT22;10957;50.968;6.828;2023-02-01T11:38:00;7.90;1.00
21590;DHT22;10957;50.968;6.828;2023-02-01T11:43:28;7.80;11.20
21590;DHT22;10957;50.968;6.828;2023-02-01T11:48:32;7.70;13.80
21590;DHT22;10957;50.968;6.828;2023-02-01T11:58:59;8.10;1.00
21590;DHT22;10957;50.968;6.828;2023-02-01T12:20:34;7.70;1.00
21590;DHT22;10957;50.968;6.828;2023-02-01T12:31:17;7.70;1.00
21590;DHT22;10957;50.968;6.828;2023-02-01T12:41:49;8.10;1.00
21590;DHT22;10957;50.968;6.828;2023-02-01T12:47:06;8.00;1.00
21590;DHT22;10957;50.968;6.828;2023-02-01T12:52:14;8.00;1.00
21590;DHT22;10957;50.968;6.828;2023-02-01T12:57:23;7.70;1.00
21590;DHT22;10957;50.968;6.828;2023-02-01T13:02:33;7.80;1.00
21590;DHT22;10957;50.968;6.828;2023-02-01T13:08:06;7.20;1.00
21590;DHT22;10957;50.968;6.828;2023-02-01T13:18:20;7.60;1.00
21590;DHT22;10957;50.968;6.828;2023-02-01T13:23:36;7.80;1.00
21590;DHT22;10957;50.968;6.828;2023-02-01T13:29:00;7.90;1.00
21590;DHT22;10957;50.968;6.828;2023-02-01T13:44:44;7.20;1.00
21590;DHT22;10957;50.968;6.828;2023-02-01T13:49:46;7.50;1.70
21590;DHT22;10957;50.968;6.828;2023-02-01T13:54:47;7.90;5.60
21590;DHT22;10957;50.968;6.828;2023-02-01T13:59:50;7.80;7.00
21590;DHT22;10957;50.968;6.828;2023-02-01T14:04:52;8.00;10.50
21590;DHT22;10957;50.968;6.828;2023-02-01T14:09:53;7.70;1.00
21590;DHT22;10957;50.968;6.828;2023-02-01T14:15:22;7.60;1.00
21590;DHT22;10957;50.968;6.828;2023-02-01T14:20:40;8.10;1.00
21590;DHT22;10957;50.968;6.828;2023-02-01T14:25:42;7.90;1.00
21590;DHT22;10957;50.968;6.828;2023-02-01T14:30:44;8.30;1.00
21590;DHT22;10957;50.968;6.828;2023-02-01T14:35:57;8.00;1.00
21590;DHT22;10957;50.968;6.828;2023-02-01T14:41:26;8.40;1.00
21590;DHT22;10957;50.968;6.828;2023-02-01T14:52:12;8.20;1.00
21590;DHT22;10957;50.968;6.828;2023-02-01T14:57:17;8.10;1.00
21590;DHT22;10957;50.968;6.828;2023-02-01T15:02:25;8.40;1.00
21590;DHT22;10957;50.968;6.828;2023-02-01T15:07:27;8.20;1.00
21590;DHT22;10957;50.968;6.828;2023-02-01T15:12:29;7.80;1.00
21590;DHT22;10957;50.968;6.828;2023-02-01T15:17:33;8.10;1.00
21590;DHT22;10957;50.968;6.828;2023-02-01T15:22:38;7.60;1.00
21590;DHT22;10957;50.968;6.828;2023-02-01T15:27:39;7.70;1.00
21590;DHT22;10957;50.968;6.828;2023-02-01T15:32:41;8.20;1.00
21590;DHT22;10957;50.968;6.828;2023-02-01T15:37:42;8.10;1.00
21590;DHT22;10957;50.968;6.828;2023-02-01T15:42:58;7.70;1.00
21590;DHT22;10957;50.968;6.828;2023-02-01T15:47:59;8.10;1.00
21590;DHT22;10957;50.968;6.828;2023-02-01T15:53:01;8.10;1.00
21590;DHT22;10957;50.968;6.828;2023-02-01T15:58:20;8.10;1.00
21590;DHT22;10957;50.968;6.828;2023-02-01T16:08:37;7.90;1.00
21590;DHT22;10957;50.968;6.828;2023-02-01T16:13:52;8.10;1.00
21590;DHT22;10957;50.968;6.828;2023-02-01T16:18:54;7.60;1.00
21590;DHT22;10957;50.968;6.828;2023-02-01T16:23:55;7.70;11.50
21590;DHT22;10957;50.968;6.828;2023-02-01T16:28:56;7.30;89.50
21590;DHT22;10957;50.968;6.828;2023-02-01T16:33:57;7.20;99.90
21590;DHT22;10957;50.968;6.828;2023-02-01T16:38:59;7.30;99.90
21590;DHT22;10957;50.968;6.828;2023-02-01T16:44:00;7.20;99.90
21590;DHT22;10957;50.968;6.828;2023-02-01T16:49:01;7.20;99.90
21590;DHT22;10957;50.968;6.828;2023-02-01T16:54:03;7.10;99.90
21590;DHT22;10957;50.968;6.828;2023-02-01T16:59:05;7.30;99.90
21590;DHT22;10957;50.968;6.828;2023-02-01T17:04:06;7.20;99.90
21590;DHT22;10957;50.968;6.828;2023-02-01T17:09:08;6.80;99.90
21590;DHT22;10957;50.968;6.828;2023-02-01T17:14:18;7.50;99.90
21590;DHT22;10957;50.968;6.828;2023-02-01T17:19:21;7.20;99.90
21590;DHT22;10957;50.968;6.828;2023-02-01T17:24:29;7.30;99.90
21590;DHT22;10957;50.968;6.828;2023-02-01T17:29:30;7.30;99.90
21590;DHT22;10957;50.968;6.828;2023-02-01T17:34:32;7.20;99.90
21590;DHT22;10957;50.968;6.828;2023-02-01T17:39:33;7.20;99.90
21590;DHT22;10957;50.968;6.828;2023-02-01T17:44:59;7.10;99.90
21590;DHT22;10957;50.968;6.828;2023-02-01T17:50:00;7.20;99.90
21590;DHT22;10957;50.968;6.828;2023-02-01T17:55:01;7.30;99.90
21590;DHT22;10957;50.968;6.828;2023-02-01T18:00:05;7.10;99.90
21590;DHT22;10957;50.968;6.828;2023-02-01T18:05:14;7.00;99.90
21590;DHT22;10957;50.968;6.828;2023-02-01T18:10:16;7.30;99.90
21590;DHT22;10957;50.968;6.828;2023-02-01T18:15:23;7.30;99.90
21590;DHT22;10957;50.968;6.828;2023-02-01T18:20:26;7.20;99.90
21590;DHT22;10957;50.968;6.828;2023-02-01T18:25:29;7.50;99.90
21590;DHT22;10957;50.968;6.828;2023-02-01T18:30:32;7.20;99.90
21590;DHT22;10957;50.968;6.828;2023-02-01T18:35:34;7.30;99.90
21590;DHT22;10957;50.968;6.828;2023-02-01T18:40:40;7.30;99.90
21590;DHT22;10957;50.968;6.828;2023-02-01T18:45:43;7.20;99.90
21590;DHT22;10957;50.968;6.828;2023-02-01T18:50:45;7.30;99.90
21590;DHT22;10957;50.968;6.828;2023-02-01T18:55:47;7.70;99.90
21590;DHT22;10957;50.968;6.828;2023-02-01T19:00:48;7.50;99.90
21590;DHT22;10957;50.968;6.828;2023-02-01T19:05:49;7.50;99.90
21590;DHT22;10957;50.968;6.828;2023-02-01T19:10:51;7.50;97.60
21590;DHT22;10957;50.968;6.828;2023-02-01T19:15:53;7.60;99.90
21590;DHT22;10957;50.968;6.828;2023-02-01T19:20:54;7.00;99.90
21590;DHT22;10957;50.968;6.828;2023-02-01T19:26:01;7.80;96.50
21590;DHT22;10957;50.968;6.828;2023-02-01T19:31:04;7.60;91.00
21590;DHT22;10957;50.968;6.828;2023-02-01T19:36:06;7.50;91.20
21590;DHT22;10957;50.968;6.828;2023-02-01T19:41:10;7.80;92.00
21590;DHT22;10957;50.968;6.828;2023-02-01T19:46:12;7.60;90.40
21590;DHT22;10957;50.968;6.828;2023-02-01T19:51:13;7.60;95.20
21590;DHT22;10957;50.968;6.828;2023-02-01T19:56:14;7.80;95.00
21590;DHT22;10957;50.968;6.828;2023-02-01T20:01:15;7.40;95.90
21590;DHT22;10957;50.968;6.828;2023-02-01T20:06:18;7.30;99.90
21590;DHT22;10957;50.968;6.828;2023-02-01T20:11:19;7.70;99.90
21590;DHT22;10957;50.968;6.828;2023-02-01T20:16:21;7.70;99.90
21590;DHT22;10957;50.968;6.828;2023-02-01T20:21:23;7.70;99.90
21590;DHT22;10957;50.968;6.828;2023-02-01T20:26:24;7.80;99.90
21590;DHT22;10957;50.968;6.828;2023-02-01T20:31:26;7.80;99.90
21590;DHT22;10957;50.968;6.828;2023-02-01T20:36:31;7.80;99.90
21590;DHT22;10957;50.968;6.828;2023-02-01T20:41:32;7.60;99.90
21590;DHT22;10957;50.968;6.828;2023-02-01T20:46:33;7.20;99.90
21590;DHT22;10957;50.968;6.828;2023-02-01T20:51:34;7.60;99.90
21590;DHT22;10957;50.968;6.828;2023-02-01T20:56:36;7.70;99.90
21590;DHT22;10957;50.968;6.828;2023-02-01T21:01:39;7.50;99.90
21590;DHT22;10957;50.968;6.828;2023-02-01T21:06:56;7.90;99.90
21590;DHT22;10957;50.968;6.828;2023-02-01T21:11:58;7.90;99.90
21590;DHT22;10957;50.968;6.828;2023-02-01T21:17:00;7.60;99.90
21590;DHT22;10957;50.968;6.828;2023-02-01T21:22:01;7.70;99.90
21590;DHT22;10957;50.968;6.828;2023-02-01T21:27:02;7.50;99.90
21590;DHT22;10957;50.968;6.828;2023-02-01T21:32:05;7.70;99.90
21590;DHT22;10957;50.968;6.828;2023-02-01T21:37:06;7.70;99.90
21590;DHT22;10957;50.968;6.828;2023-02-01T21:42:09;7.90;99.90
21590;DHT22;10957;50.968;6.828;2023-02-01T21:47:19;7.70;99.90
21590;DHT22;10957;50.968;6.828;2023-02-01T21:52:22;7.70;99.90
21590;DHT22;10957;50.968;6.828;2023-02-01T21:57:23;7.50;99.90
21590;DHT22;10957;50.968;6.828;2023-02-01T22:02:25;7.80;99.90
21590;DHT22;10957;50.968;6.828;2023-02-01T22:07:27;7.20;99.90
21590;DHT22;10957;50.968;6.828;2023-02-01T22:12:28;7.70;99.90
21590;DHT22;10957;50.968;6.828;2023-02-01T22:17:29;7.50;99.90
21590;DHT22;10957;50.968;6.828;2023-02-01T22:22:31;7.10;99.90
21590;DHT22;10957;50.968;6.828;2023-02-01T22:27:32;7.50;99.90
21590;DHT22;10957;50.968;6.828;2023-02-01T22:32:33;7.50;99.90
21590;DHT22;10957;50.968;6.828;2023-02-01T22:37:35;7.70;99.90
21590;DHT22;10957;50.968;6.828;2023-02-01T22:42:36;7.50;99.90
21590;DHT22;10957;50.968;6.828;2023-02-01T22:47:37;7.70;99.90
21590;DHT22;10957;50.968;6.828;2023-02-01T22:52:38;6.90;99.90
21590;DHT22;10957;50.968;6.828;2023-02-01T22:57:39;6.90;99.90
21590;DHT22;10957;50.968;6.828;2023-02-01T23:02:42;7.50;99.90
21590;DHT22;10957;50.968;6.828;2023-02-01T23:07:45;7.00;99.90
21590;DHT22;10957;50.968;6.828;2023-02-01T23:12:48;7.30;99.90
21590;DHT22;10957;50.968;6.828;2023-02-01T23:17:49;7.00;99.90
21590;DHT22;10957;50.968;6.828;2023-02-01T23:22:51;6.90;99.90
21590;DHT22;10957;50.968;6.828;2023-02-01T23:27:52;7.60;99.90
21590;DHT22;10957;50.968;6.828;2023-02-01T23:32:53;7.30;99.90
21590;DHT22;10957;50.968;6.828;2023-02-01T23:37:54;7.50;99.90
21590;DHT22;10957;50.968;6.828;2023-02-01T23:42:55;7.10;99.90
21590;DHT22;10957;50.968;6.828;2023-02-01T23:48:35;7.50;99.90
21590;DHT22;10957;50.968;6.828;2023-02-01T23:53:36;7.70;99.90
21590;DHT22;10957;50.968;6.828;2023-02-01T23:58:38;7.70;99.90
